sensor_id;sensor_type;location;lat;lon;timestamp;noise_LAeq;noise_LA_min;noise_LA_max;noise_LA01;noise_LA95
45964;Laerm;31671;48.092;11.842;2023-03-29T00:01:47;29.61;28.23;30.84;;
45964;Laerm;31671;48.092;11.842;2023-03-29T00:04:12;29.65;28.28;30.83;;
45964;Laerm;31671;48.092;11.842;2023-03-29T00:06:38;29.57;28.34;30.96;;
45964;Laerm;31671;48.092;11.842;2023-03-29T00:09:04;29.41;28.16;30.68;;
45964;Laerm;31671;48.092;11.842;2023-03-29T00:11:30;29.62;28.25;38.44;;
45964;Laerm;31671;48.092;11.842;2023-03-29T00:13:55;29.73;28.12;39.47;;
45964;Laerm;31671;48.092;11.842;2023-03-29T00:16:21;29.38;27.92;30.56;;
45964;Laerm;31671;48.092;11.842;2023-03-29T00:18:49;29.35;28.11;31.37;;
45964;Laerm;31671;48.092;11.842;2023-03-29T00:21:14;29.43;28.16;34.59;;
45964;Laerm;31671;48.092;11.842;2023-03-29T00:23:40;29.38;28.15;30.58;;
45964;Laerm;31671;48.092;11.842;2023-03-29T00:26:06;29.43;28.09;30.62;;
45964;Laerm;31671;48.092;11.842;2023-03-29T00:28:32;29.64;28.01;38.81;;
45964;Laerm;31671;48.092;11.842;2023-03-29T00:31:05;29.75;28.17;33.72;;
45964;Laerm;31671;48.092;11.842;2023-03-29T00:33:31;29.43;28.25;30.62;;
45964;Laerm;31671;48.092;11.842;2023-03-29T00:35:56;29.62;28.28;30.79;;
45964;Laerm;31671;48.092;11.842;2023-03-29T00:38:22;29.93;28.56;42.45;;
45964;Laerm;31671;48.092;11.842;2023-03-29T00:40:48;30.91;28.49;53.49;;
45964;Laerm;31671;48.092;11.842;2023-03-29T00:43:14;33.00;28.52;65.74;;
45964;Laerm;31671;48.092;11.842;2023-03-29T00:45:40;30.00;28.70;43.17;;
45964;Laerm;31671;48.092;11.842;2023-03-29T00:48:09;29.94;28.61;40.13;;
45964;Laerm;31671;48.092;11.842;2023-03-29T00:50:36;30.52;28.45;48.72;;
45964;Laerm;31671;48.092;11.842;2023-03-29T00:53:08;31.67;28.38;59.55;;
45964;Laerm;31671;48.092;11.842;2023-03-29T00:55:36;29.69;28.06;45.33;;
45964;Laerm;31671;48.092;11.842;2023-03-29T00:58:04;30.59;28.07;53.70;;
45964;Laerm;31671;48.092;11.842;2023-03-29T01:00:33;29.59;28.06;43.09;;
45964;Laerm;31671;48.092;11.842;2023-03-29T01:03:02;29.29;28.16;30.51;;
45964;Laerm;31671;48.092;11.842;2023-03-29T01:05:31;29.31;28.05;31.34;;
45964;Laerm;31671;48.092;11.842;2023-03-29T01:08:03;29.82;27.93;33.67;;
45964;Laerm;31671;48.092;11.842;2023-03-29T01:12:57;29.33;28.18;38.90;;
45964;Laerm;31671;48.092;11.842;2023-03-29T01:15:25;29.30;28.01;31.46;;
45964;Laerm;31671;48.092;11.842;2023-03-29T01:17:52;30.20;27.88;38.42;;
45964;Laerm;31671;48.092;11.842;2023-03-29T01:22:53;29.25;27.75;32.24;;
45964;Laerm;31671;48.092;11.842;2023-03-29T01:25:40;29.23;27.96;33.20;;
45964;Laerm;31671;48.092;11.842;2023-03-29T01:28:07;29.17;28.02;31.65;;
45964;Laerm;31671;48.092;11.842;2023-03-29T01:30:41;29.21;27.76;33.05;;
45964;Laerm;31671;48.092;11.842;2023-03-29T01:33:13;29.16;27.44;31.51;;
45964;Laerm;31671;48.092;11.842;2023-03-29T01:35:40;29.30;27.83;32.66;;
45964;Laerm;31671;48.092;11.842;2023-03-29T01:38:09;29.27;27.82;32.03;;
45964;Laerm;31671;48.092;11.842;2023-03-29T01:40:36;29.61;28.02;33.62;;
45964;Laerm;31671;48.092;11.842;2023-03-29T01:46:08;29.46;27.81;33.42;;
45964;Laerm;31671;48.092;11.842;2023-03-29T01:51:22;29.27;27.87;37.29;;
45964;Laerm;31671;48.092;11.842;2023-03-29T01:56:28;31.15;28.08;46.86;;
45964;Laerm;31671;48.092;11.842;2023-03-29T01:58:59;29.38;27.86;42.71;;
45964;Laerm;31671;48.092;11.842;2023-03-29T02:01:27;31.75;28.12;47.21;;
45964;Laerm;31671;48.092;11.842;2023-03-29T02:03:56;33.32;28.05;56.60;;
45964;Laerm;31671;48.092;11.842;2023-03-29T02:06:24;30.35;27.89;54.61;;
45964;Laerm;31671;48.092;11.842;2023-03-29T02:08:52;29.34;27.88;49.40;;
45964;Laerm;31671;48.092;11.842;2023-03-29T02:11:18;29.19;27.97;32.30;;
45964;Laerm;31671;48.092;11.842;2023-03-29T02:13:44;30.61;28.02;45.55;;
45964;Laerm;31671;48.092;11.842;2023-03-29T02:16:11;29.58;27.96;45.57;;
45964;Laerm;31671;48.092;11.842;2023-03-29T02:18:38;29.47;27.91;41.82;;
45964;Laerm;31671;48.092;11.842;2023-03-29T02:21:04;29.78;27.68;41.63;;
45964;Laerm;31671;48.092;11.842;2023-03-29T02:23:34;29.16;27.85;30.30;;
45964;Laerm;31671;48.092;11.842;2023-03-29T02:26:01;29.19;27.65;32.53;;
45964;Laerm;31671;48.092;11.842;2023-03-29T02:28:28;29.26;27.90;34.22;;
45964;Laerm;31671;48.092;11.842;2023-03-29T02:36:05;29.14;27.97;30.29;;
45964;Laerm;31671;48.092;11.842;2023-03-29T02:38:32;29.33;27.89;37.76;;
45964;Laerm;31671;48.092;11.842;2023-03-29T02:40:58;29.14;27.99;31.15;;
45964;Laerm;31671;48.092;11.842;2023-03-29T02:43:25;29.27;27.80;32.86;;
45964;Laerm;31671;48.092;11.842;2023-03-29T02:45:51;29.15;27.88;30.44;;
45964;Laerm;31671;48.092;11.842;2023-03-29T02:48:19;29.14;27.63;32.80;;
45964;Laerm;31671;48.092;11.842;2023-03-29T02:50:46;29.25;27.63;35.07;;
45964;Laerm;31671;48.092;11.842;2023-03-29T02:53:17;30.84;27.84;47.43;;
45964;Laerm;31671;48.092;11.842;2023-03-29T02:55:45;29.50;27.75;42.80;;
45964;Laerm;31671;48.092;11.842;2023-03-29T02:58:11;29.23;27.91;38.90;;
45964;Laerm;31671;48.092;11.842;2023-03-29T03:00:42;29.47;27.95;35.80;;
45964;Laerm;31671;48.092;11.842;2023-03-29T03:03:08;29.36;27.72;39.03;;
45964;Laerm;31671;48.092;11.842;2023-03-29T03:05:34;30.13;27.98;44.17;;
45964;Laerm;31671;48.092;11.842;2023-03-29T03:07:59;29.22;27.85;33.84;;
45964;Laerm;31671;48.092;11.842;2023-03-29T03:10:25;29.19;27.56;31.06;;
45964;Laerm;31671;48.092;11.842;2023-03-29T03:12:51;29.27;27.99;33.74;;
45964;Laerm;31671;48.092;11.842;2023-03-29T03:15:16;30.49;27.87;38.95;;
45964;Laerm;31671;48.092;11.842;2023-03-29T03:17:42;29.18;27.80;30.59;;
45964;Laerm;31671;48.092;11.842;2023-03-29T03:20:08;29.31;27.95;35.84;;
45964;Laerm;31671;48.092;11.842;2023-03-29T03:22:35;30.00;27.83;47.78;;
45964;Laerm;31671;48.092;11.842;2023-03-29T03:25:00;29.47;27.91;36.23;;
45964;Laerm;31671;48.092;11.842;2023-03-29T03:27:26;29.57;27.93;39.33;;
45964;Laerm;31671;48.092;11.842;2023-03-29T03:29:52;30.81;27.81;50.37;;
45964;Laerm;31671;48.092;11.842;2023-03-29T03:32:45;30.57;27.86;46.46;;
45964;Laerm;31671;48.092;11.842;2023-03-29T03:35:28;29.85;27.85;43.16;;
45964;Laerm;31671;48.092;11.842;2023-03-29T03:37:54;30.91;28.31;44.84;;
45964;Laerm;31671;48.092;11.842;2023-03-29T03:40:21;31.91;28.02;50.77;;
45964;Laerm;31671;48.092;11.842;2023-03-29T03:42:47;29.91;27.95;42.21;;
45964;Laerm;31671;48.092;11.842;2023-03-29T03:45:13;30.16;27.99;45.51;;
45964;Laerm;31671;48.092;11.842;2023-03-29T03:47:50;30.02;27.99;47.66;;
45964;Laerm;31671;48.092;11.842;2023-03-29T03:50:22;39.27;27.98;60.76;;
45964;Laerm;31671;48.092;11.842;2023-03-29T03:52:48;39.96;28.22;58.49;;
45964;Laerm;31671;48.092;11.842;2023-03-29T03:55:13;32.03;27.91;55.18;;
45964;Laerm;31671;48.092;11.842;2023-03-29T03:57:42;39.06;28.10;57.19;;
45964;Laerm;31671;48.092;11.842;2023-03-29T04:00:12;37.78;28.04;57.57;;
45964;Laerm;31671;48.092;11.842;2023-03-29T04:02:38;40.32;28.36;59.14;;
45964;Laerm;31671;48.092;11.842;2023-03-29T04:05:04;32.58;28.18;47.88;;
45964;Laerm;31671;48.092;11.842;2023-03-29T04:07:34;35.37;28.02;55.61;;
45964;Laerm;31671;48.092;11.842;2023-03-29T04:10:12;40.39;28.09;55.50;;
45964;Laerm;31671;48.092;11.842;2023-03-29T04:12:45;36.31;28.33;55.15;;
45964;Laerm;31671;48.092;11.842;2023-03-29T04:15:11;41.59;27.99;59.15;;
45964;Laerm;31671;48.092;11.842;2023-03-29T04:17:41;38.92;28.27;57.07;;
45964;Laerm;31671;48.092;11.842;2023-03-29T04:20:19;43.02;28.61;61.11;;
45964;Laerm;31671;48.092;11.842;2023-03-29T04:22:45;31.30;28.47;47.78;;
45964;Laerm;31671;48.092;11.842;2023-03-29T04:25:11;33.38;28.51;53.34;;
45964;Laerm;31671;48.092;11.842;2023-03-29T04:27:45;31.35;28.39;46.65;;
45964;Laerm;31671;48.092;11.842;2023-03-29T04:30:22;32.77;28.36;49.92;;
45964;Laerm;31671;48.092;11.842;2023-03-29T04:33:09;31.26;28.32;48.63;;
45964;Laerm;31671;48.092;11.842;2023-03-29T04:35:37;30.55;28.24;48.63;;
45964;Laerm;31671;48.092;11.842;2023-03-29T04:38:04;36.57;28.38;56.12;;
45964;Laerm;31671;48.092;11.842;2023-03-29T04:40:29;30.48;28.18;41.79;;
45964;Laerm;31671;48.092;11.842;2023-03-29T04:43:05;30.88;27.93;45.07;;
45964;Laerm;31671;48.092;11.842;2023-03-29T04:45:31;31.13;28.29;48.17;;
45964;Laerm;31671;48.092;11.842;2023-03-29T04:48:08;31.78;28.49;48.34;;
45964;Laerm;31671;48.092;11.842;2023-03-29T04:50:37;34.24;28.28;52.01;;
45964;Laerm;31671;48.092;11.842;2023-03-29T04:53:02;32.42;28.17;49.60;;
45964;Laerm;31671;48.092;11.842;2023-03-29T04:55:28;31.52;28.15;48.84;;
45964;Laerm;31671;48.092;11.842;2023-03-29T04:57:59;30.13;28.22;41.63;;
45964;Laerm;31671;48.092;11.842;2023-03-29T05:00:30;30.43;28.14;43.56;;
45964;Laerm;31671;48.092;11.842;2023-03-29T05:03:10;30.37;28.04;43.69;;
45964;Laerm;31671;48.092;11.842;2023-03-29T05:05:40;30.54;28.38;43.56;;
45964;Laerm;31671;48.092;11.842;2023-03-29T05:08:06;29.74;28.10;36.47;;
45964;Laerm;31671;48.092;11.842;2023-03-29T05:10:40;30.10;27.96;38.33;;
45964;Laerm;31671;48.092;11.842;2023-03-29T05:13:06;31.49;28.17;49.14;;
45964;Laerm;31671;48.092;11.842;2023-03-29T05:15:32;29.65;28.01;33.95;;
45964;Laerm;31671;48.092;11.842;2023-03-29T05:17:58;30.28;28.11;39.31;;
45964;Laerm;31671;48.092;11.842;2023-03-29T05:20:24;30.57;28.23;38.51;;
45964;Laerm;31671;48.092;11.842;2023-03-29T05:22:50;30.34;28.34;39.98;;
45964;Laerm;31671;48.092;11.842;2023-03-29T05:25:38;30.22;28.27;40.14;;
45964;Laerm;31671;48.092;11.842;2023-03-29T05:28:04;32.44;28.29;52.91;;
45964;Laerm;31671;48.092;11.842;2023-03-29T05:30:30;30.13;28.33;39.36;;
45964;Laerm;31671;48.092;11.842;2023-03-29T05:33:18;30.39;28.20;44.54;;
45964;Laerm;31671;48.092;11.842;2023-03-29T05:35:44;31.15;28.18;49.09;;
45964;Laerm;31671;48.092;11.842;2023-03-29T05:38:10;30.52;28.48;36.22;;
45964;Laerm;31671;48.092;11.842;2023-03-29T05:40:36;32.78;28.35;47.80;;
45964;Laerm;31671;48.092;11.842;2023-03-29T05:43:24;30.20;28.20;38.77;;
45964;Laerm;31671;48.092;11.842;2023-03-29T05:45:53;30.06;28.36;38.94;;
45964;Laerm;31671;48.092;11.842;2023-03-29T05:48:20;32.15;28.18;46.90;;
45964;Laerm;31671;48.092;11.842;2023-03-29T05:50:49;42.58;28.33;61.87;;
45964;Laerm;31671;48.092;11.842;2023-03-29T05:53:16;32.45;28.35;48.16;;
45964;Laerm;31671;48.092;11.842;2023-03-29T05:55:42;35.48;28.43;54.28;;
45964;Laerm;31671;48.092;11.842;2023-03-29T05:58:08;30.01;28.08;37.29;;
45964;Laerm;31671;48.092;11.842;2023-03-29T06:00:35;30.20;28.32;44.67;;
45964;Laerm;31671;48.092;11.842;2023-03-29T06:03:14;29.93;27.96;38.81;;
45964;Laerm;31671;48.092;11.842;2023-03-29T06:05:41;30.10;28.22;39.94;;
45964;Laerm;31671;48.092;11.842;2023-03-29T06:08:07;30.41;28.21;47.15;;
45964;Laerm;31671;48.092;11.842;2023-03-29T06:10:45;30.24;28.34;40.20;;
45964;Laerm;31671;48.092;11.842;2023-03-29T06:13:23;30.49;28.20;47.30;;
45964;Laerm;31671;48.092;11.842;2023-03-29T06:15:49;31.22;28.02;51.00;;
45964;Laerm;31671;48.092;11.842;2023-03-29T06:18:15;29.78;27.78;41.18;;
45964;Laerm;31671;48.092;11.842;2023-03-29T06:20:41;29.80;27.83;46.34;;
45964;Laerm;31671;48.092;11.842;2023-03-29T06:23:11;30.13;28.08;37.85;;
45964;Laerm;31671;48.092;11.842;2023-03-29T06:25:37;29.76;28.00;38.06;;
45964;Laerm;31671;48.092;11.842;2023-03-29T06:28:03;29.62;28.14;34.05;;
45964;Laerm;31671;48.092;11.842;2023-03-29T06:30:29;32.47;28.58;47.46;;
45964;Laerm;31671;48.092;11.842;2023-03-29T06:32:57;30.43;28.31;41.99;;
45964;Laerm;31671;48.092;11.842;2023-03-29T06:35:45;29.88;28.18;37.97;;
45964;Laerm;31671;48.092;11.842;2023-03-29T06:38:14;30.24;28.32;37.26;;
45964;Laerm;31671;48.092;11.842;2023-03-29T06:41:02;32.11;28.19;50.28;;
45964;Laerm;31671;48.092;11.842;2023-03-29T06:43:37;33.97;28.08;57.11;;
45964;Laerm;31671;48.092;11.842;2023-03-29T06:46:07;32.10;28.20;51.97;;
45964;Laerm;31671;48.092;11.842;2023-03-29T06:48:44;31.40;28.05;48.36;;
45964;Laerm;31671;48.092;11.842;2023-03-29T06:51:09;29.66;28.21;33.77;;
45964;Laerm;31671;48.092;11.842;2023-03-29T06:53:35;31.23;28.09;44.30;;
45964;Laerm;31671;48.092;11.842;2023-03-29T06:56:02;31.12;28.23;46.67;;
45964;Laerm;31671;48.092;11.842;2023-03-29T06:58:41;31.43;28.10;53.87;;
45964;Laerm;31671;48.092;11.842;2023-03-29T07:01:24;30.35;28.24;37.66;;
45964;Laerm;31671;48.092;11.842;2023-03-29T07:03:58;31.09;28.12;48.89;;
45964;Laerm;31671;48.092;11.842;2023-03-29T07:06:29;34.04;28.23;62.30;;
45964;Laerm;31671;48.092;11.842;2023-03-29T07:08:55;30.31;28.48;44.30;;
45964;Laerm;31671;48.092;11.842;2023-03-29T07:11:54;31.54;28.23;47.49;;
45964;Laerm;31671;48.092;11.842;2023-03-29T07:14:25;30.21;28.60;44.17;;
45964;Laerm;31671;48.092;11.842;2023-03-29T07:16:51;30.34;28.44;41.83;;
45964;Laerm;31671;48.092;11.842;2023-03-29T07:19:28;37.82;28.25;59.74;;
45964;Laerm;31671;48.092;11.842;2023-03-29T07:21:54;35.11;28.43;60.62;;
45964;Laerm;31671;48.092;11.842;2023-03-29T07:24:23;31.09;28.47;49.30;;
45964;Laerm;31671;48.092;11.842;2023-03-29T07:26:49;39.03;28.16;63.46;;
45964;Laerm;31671;48.092;11.842;2023-03-29T07:29:14;33.64;28.63;59.34;;
45964;Laerm;31671;48.092;11.842;2023-03-29T07:31:41;30.78;28.59;41.96;;
45964;Laerm;31671;48.092;11.842;2023-03-29T07:34:42;33.01;28.33;56.93;;
45964;Laerm;31671;48.092;11.842;2023-03-29T07:37:12;39.52;28.50;62.67;;
45964;Laerm;31671;48.092;11.842;2023-03-29T07:39:40;34.78;28.46;60.11;;
45964;Laerm;31671;48.092;11.842;2023-03-29T07:42:24;31.50;28.35;51.60;;
45964;Laerm;31671;48.092;11.842;2023-03-29T07:44:50;34.89;28.38;65.42;;
45964;Laerm;31671;48.092;11.842;2023-03-29T07:47:16;35.97;28.58;58.09;;
45964;Laerm;31671;48.092;11.842;2023-03-29T07:49:42;30.83;28.65;47.01;;
45964;Laerm;31671;48.092;11.842;2023-03-29T07:52:08;32.77;28.79;52.68;;
45964;Laerm;31671;48.092;11.842;2023-03-29T07:54:34;31.98;28.86;50.72;;
45964;Laerm;31671;48.092;11.842;2023-03-29T07:57:15;35.71;28.91;56.15;;
45964;Laerm;31671;48.092;11.842;2023-03-29T07:59:47;40.74;29.25;65.42;;
45964;Laerm;31671;48.092;11.842;2023-03-29T08:02:18;36.45;28.90;60.47;;
45964;Laerm;31671;48.092;11.842;2023-03-29T08:04:47;40.17;29.26;66.17;;
45964;Laerm;31671;48.092;11.842;2023-03-29T08:07:13;42.25;29.22;62.54;;
45964;Laerm;31671;48.092;11.842;2023-03-29T08:09:59;39.24;29.15;62.80;;
45964;Laerm;31671;48.092;11.842;2023-03-29T08:12:37;40.95;29.16;67.80;;
45964;Laerm;31671;48.092;11.842;2023-03-29T08:15:03;34.10;29.01;65.74;;
45964;Laerm;31671;48.092;11.842;2023-03-29T08:17:32;34.83;28.68;62.40;;
45964;Laerm;31671;48.092;11.842;2023-03-29T08:19:58;36.89;29.24;61.70;;
45964;Laerm;31671;48.092;11.842;2023-03-29T08:22:23;35.38;29.07;62.31;;
45964;Laerm;31671;48.092;11.842;2023-03-29T08:25:18;46.05;28.97;75.70;;
45964;Laerm;31671;48.092;11.842;2023-03-29T08:27:47;39.80;29.27;58.20;;
45964;Laerm;31671;48.092;11.842;2023-03-29T08:30:17;46.82;28.78;67.25;;
45964;Laerm;31671;48.092;11.842;2023-03-29T08:32:43;39.33;28.98;66.91;;
45964;Laerm;31671;48.092;11.842;2023-03-29T08:35:09;34.26;28.97;57.38;;
45964;Laerm;31671;48.092;11.842;2023-03-29T08:37:40;34.54;29.18;58.09;;
45964;Laerm;31671;48.092;11.842;2023-03-29T08:40:06;45.06;29.16;65.23;;
45964;Laerm;31671;48.092;11.842;2023-03-29T08:50:46;37.69;28.92;66.10;;
45964;Laerm;31671;48.092;11.842;2023-03-29T08:53:16;38.23;29.22;64.12;;
45964;Laerm;31671;48.092;11.842;2023-03-29T08:56:11;38.78;29.18;66.64;;
45964;Laerm;31671;48.092;11.842;2023-03-29T08:58:56;33.59;29.27;51.95;;
45964;Laerm;31671;48.092;11.842;2023-03-29T09:01:23;37.31;29.09;67.39;;
45964;Laerm;31671;48.092;11.842;2023-03-29T09:06:43;39.16;29.12;64.92;;
45964;Laerm;31671;48.092;11.842;2023-03-29T09:09:20;36.78;29.27;64.24;;
45964;Laerm;31671;48.092;11.842;2023-03-29T09:16:50;34.02;29.28;55.34;;
45964;Laerm;31671;48.092;11.842;2023-03-29T09:19:30;36.72;29.52;58.06;;
45964;Laerm;31671;48.092;11.842;2023-03-29T09:24:39;36.94;29.32;64.23;;
45964;Laerm;31671;48.092;11.842;2023-03-29T09:29:46;34.15;29.03;61.84;;
45964;Laerm;31671;48.092;11.842;2023-03-29T09:32:18;32.90;28.90;55.17;;
45964;Laerm;31671;48.092;11.842;2023-03-29T09:35:32;32.31;29.18;53.93;;
45964;Laerm;31671;48.092;11.842;2023-03-29T09:37:33;30.99;29.05;45.03;;
45964;Laerm;31671;48.092;11.842;2023-03-29T09:40:02;38.55;29.11;62.72;;
45964;Laerm;31671;48.092;11.842;2023-03-29T09:42:43;30.81;29.16;41.30;;
45964;Laerm;31671;48.092;11.842;2023-03-29T09:45:09;35.25;29.27;65.96;;
45964;Laerm;31671;48.092;11.842;2023-03-29T09:47:47;41.80;29.12;64.06;;
45964;Laerm;31671;48.092;11.842;2023-03-29T09:50:18;37.81;28.99;57.87;;
45964;Laerm;31671;48.092;11.842;2023-03-29T09:52:46;34.58;29.07;58.46;;
45964;Laerm;31671;48.092;11.842;2023-03-29T09:55:17;31.00;29.18;45.79;;
45964;Laerm;31671;48.092;11.842;2023-03-29T09:58:10;30.70;29.09;43.37;;
45964;Laerm;31671;48.092;11.842;2023-03-29T10:00:38;31.59;29.41;53.79;;
45964;Laerm;31671;48.092;11.842;2023-03-29T10:03:04;31.29;29.36;48.63;;
45964;Laerm;31671;48.092;11.842;2023-03-29T10:05:46;34.80;29.22;62.16;;
45964;Laerm;31671;48.092;11.842;2023-03-29T10:08:59;33.71;28.94;57.72;;
45964;Laerm;31671;48.092;11.842;2023-03-29T10:11:16;31.40;28.87;49.02;;
45964;Laerm;31671;48.092;11.842;2023-03-29T10:13:46;33.71;29.07;61.64;;
45964;Laerm;31671;48.092;11.842;2023-03-29T10:16:17;31.37;29.15;54.99;;
45964;Laerm;31671;48.092;11.842;2023-03-29T10:18:44;30.92;29.36;37.97;;
45964;Laerm;31671;48.092;11.842;2023-03-29T10:21:13;30.86;29.25;39.79;;
45964;Laerm;31671;48.092;11.842;2023-03-29T10:23:39;33.46;29.19;58.58;;
45964;Laerm;31671;48.092;11.842;2023-03-29T10:26:05;33.01;29.18;54.39;;
45964;Laerm;31671;48.092;11.842;2023-03-29T10:28:32;33.25;29.01;53.15;;
45964;Laerm;31671;48.092;11.842;2023-03-29T10:30:59;30.92;28.86;49.22;;
45964;Laerm;31671;48.092;11.842;2023-03-29T10:33:32;32.22;29.05;57.00;;
45964;Laerm;31671;48.092;11.842;2023-03-29T10:35:58;30.88;29.09;40.21;;
45964;Laerm;31671;48.092;11.842;2023-03-29T10:38:25;30.60;29.12;34.50;;
45964;Laerm;31671;48.092;11.842;2023-03-29T10:40:52;34.40;29.13;59.29;;
45964;Laerm;31671;48.092;11.842;2023-03-29T10:45:47;37.26;29.30;59.73;;
45964;Laerm;31671;48.092;11.842;2023-03-29T10:48:13;30.65;29.21;38.74;;
45964;Laerm;31671;48.092;11.842;2023-03-29T10:50:39;30.79;29.12;39.85;;
45964;Laerm;31671;48.092;11.842;2023-03-29T10:53:13;30.96;29.21;45.37;;
45964;Laerm;31671;48.092;11.842;2023-03-29T10:55:42;33.16;29.08;54.94;;
45964;Laerm;31671;48.092;11.842;2023-03-29T11:00:45;30.59;29.14;38.73;;
45964;Laerm;31671;48.092;11.842;2023-03-29T11:06:07;31.09;29.01;48.91;;
45964;Laerm;31671;48.092;11.842;2023-03-29T11:08:45;31.15;29.12;53.38;;
45964;Laerm;31671;48.092;11.842;2023-03-29T11:11:27;30.73;29.24;40.78;;
45964;Laerm;31671;48.092;11.842;2023-03-29T11:14:00;30.59;29.17;43.07;;
45964;Laerm;31671;48.092;11.842;2023-03-29T11:21:27;31.38;29.04;41.81;;
45964;Laerm;31671;48.092;11.842;2023-03-29T11:26:40;30.99;28.68;52.31;;
45964;Laerm;31671;48.092;11.842;2023-03-29T11:29:12;30.58;28.98;44.53;;
45964;Laerm;31671;48.092;11.842;2023-03-29T11:37:14;30.55;29.10;36.88;;
45964;Laerm;31671;48.092;11.842;2023-03-29T11:39:47;30.56;29.21;39.72;;
45964;Laerm;31671;48.092;11.842;2023-03-29T11:42:17;30.61;28.92;45.06;;
45964;Laerm;31671;48.092;11.842;2023-03-29T11:44:45;31.41;29.05;50.93;;
45964;Laerm;31671;48.092;11.842;2023-03-29T11:47:13;30.79;28.76;41.55;;
45964;Laerm;31671;48.092;11.842;2023-03-29T11:49:45;31.19;28.84;44.29;;
45964;Laerm;31671;48.092;11.842;2023-03-29T11:52:23;31.08;28.75;38.98;;
45964;Laerm;31671;48.092;11.842;2023-03-29T11:54:53;30.43;28.56;36.06;;
45964;Laerm;31671;48.092;11.842;2023-03-29T11:57:25;29.93;28.50;41.34;;
45964;Laerm;31671;48.092;11.842;2023-03-29T12:04:48;31.56;28.46;49.43;;
45964;Laerm;31671;48.092;11.842;2023-03-29T12:07:23;30.00;28.31;38.17;;
45964;Laerm;31671;48.092;11.842;2023-03-29T12:09:52;30.51;28.41;48.64;;
45964;Laerm;31671;48.092;11.842;2023-03-29T12:12:25;30.05;28.62;38.55;;
45964;Laerm;31671;48.092;11.842;2023-03-29T12:15:14;30.24;28.69;39.03;;
45964;Laerm;31671;48.092;11.842;2023-03-29T12:17:42;34.18;28.45;56.86;;
45964;Laerm;31671;48.092;11.842;2023-03-29T12:20:10;30.73;28.54;50.22;;
45964;Laerm;31671;48.092;11.842;2023-03-29T12:22:41;31.83;28.49;59.83;;
45964;Laerm;31671;48.092;11.842;2023-03-29T12:25:09;30.21;28.51;47.93;;
45964;Laerm;31671;48.092;11.842;2023-03-29T12:27:45;31.54;28.62;54.48;;
45964;Laerm;31671;48.092;11.842;2023-03-29T12:30:26;30.07;28.52;42.43;;
45964;Laerm;31671;48.092;11.842;2023-03-29T12:38:49;39.05;28.39;64.00;;
45964;Laerm;31671;48.092;11.842;2023-03-29T12:44:00;32.93;28.51;59.04;;
45964;Laerm;31671;48.092;11.842;2023-03-29T12:46:45;38.92;28.44;62.97;;
45964;Laerm;31671;48.092;11.842;2023-03-29T12:49:22;41.59;28.51;65.15;;
45964;Laerm;31671;48.092;11.842;2023-03-29T12:51:51;29.90;28.32;45.89;;
45964;Laerm;31671;48.092;11.842;2023-03-29T12:54:20;29.81;28.27;35.09;;
45964;Laerm;31671;48.092;11.842;2023-03-29T12:59:32;33.53;28.49;64.41;;
45964;Laerm;31671;48.092;11.842;2023-03-29T13:02:01;30.53;28.45;41.93;;
45964;Laerm;31671;48.092;11.842;2023-03-29T13:04:39;30.24;28.33;46.36;;
45964;Laerm;31671;48.092;11.842;2023-03-29T13:07:58;30.91;28.64;54.85;;
45964;Laerm;31671;48.092;11.842;2023-03-29T13:10:05;30.43;28.69;49.90;;
45964;Laerm;31671;48.092;11.842;2023-03-29T13:12:42;30.10;28.47;48.49;;
45964;Laerm;31671;48.092;11.842;2023-03-29T13:20:20;30.88;28.35;47.95;;
45964;Laerm;31671;48.092;11.842;2023-03-29T13:25:25;30.03;28.28;41.20;;
45964;Laerm;31671;48.092;11.842;2023-03-29T13:35:48;29.51;28.00;38.66;;
45964;Laerm;31671;48.092;11.842;2023-03-29T13:38:22;31.25;28.16;51.18;;
45964;Laerm;31671;48.092;11.842;2023-03-29T13:45:43;29.38;27.95;34.24;;
45964;Laerm;31671;48.092;11.842;2023-03-29T13:50:54;29.67;28.10;46.29;;
45964;Laerm;31671;48.092;11.842;2023-03-29T13:53:25;29.96;27.71;38.17;;
45964;Laerm;31671;48.092;11.842;2023-03-29T13:55:53;29.40;27.89;36.36;;
45964;Laerm;31671;48.092;11.842;2023-03-29T13:58:33;29.56;28.19;35.60;;
45964;Laerm;31671;48.092;11.842;2023-03-29T14:03:47;30.72;28.11;52.28;;
45964;Laerm;31671;48.092;11.842;2023-03-29T14:06:14;30.03;27.87;46.84;;
45964;Laerm;31671;48.092;11.842;2023-03-29T14:08:42;32.61;28.15;58.19;;
45964;Laerm;31671;48.092;11.842;2023-03-29T14:11:18;29.77;28.32;39.34;;
45964;Laerm;31671;48.092;11.842;2023-03-29T14:13:45;29.73;28.39;37.06;;
45964;Laerm;31671;48.092;11.842;2023-03-29T14:16:14;29.95;28.48;45.89;;
45964;Laerm;31671;48.092;11.842;2023-03-29T14:18:40;33.33;28.55;58.91;;
45964;Laerm;31671;48.092;11.842;2023-03-29T14:21:06;43.90;28.27;66.54;;
45964;Laerm;31671;48.092;11.842;2023-03-29T14:23:33;45.60;28.30;64.67;;
45964;Laerm;31671;48.092;11.842;2023-03-29T14:26:33;43.29;28.49;67.42;;
45964;Laerm;31671;48.092;11.842;2023-03-29T14:28:53;35.21;28.48;55.91;;
45964;Laerm;31671;48.092;11.842;2023-03-29T14:33:51;30.10;28.48;42.56;;
45964;Laerm;31671;48.092;11.842;2023-03-29T14:36:17;31.40;28.39;51.28;;
45964;Laerm;31671;48.092;11.842;2023-03-29T14:38:45;30.63;28.61;48.62;;
45964;Laerm;31671;48.092;11.842;2023-03-29T14:41:12;30.01;28.34;41.22;;
45964;Laerm;31671;48.092;11.842;2023-03-29T14:43:38;31.32;28.56;50.20;;
45964;Laerm;31671;48.092;11.842;2023-03-29T14:46:04;33.55;28.81;50.63;;
45964;Laerm;31671;48.092;11.842;2023-03-29T14:48:30;35.51;28.66;57.67;;
45964;Laerm;31671;48.092;11.842;2023-03-29T14:50:57;34.52;28.59;58.40;;
45964;Laerm;31671;48.092;11.842;2023-03-29T14:53:23;36.03;28.80;55.76;;
45964;Laerm;31671;48.092;11.842;2023-03-29T14:55:50;36.80;28.73;60.22;;
45964;Laerm;31671;48.092;11.842;2023-03-29T14:58:20;33.45;28.77;51.77;;
45964;Laerm;31671;48.092;11.842;2023-03-29T15:00:47;33.09;28.91;52.68;;
45964;Laerm;31671;48.092;11.842;2023-03-29T15:03:13;34.13;28.51;57.58;;
45964;Laerm;31671;48.092;11.842;2023-03-29T15:05:40;34.12;28.82;58.04;;
45964;Laerm;31671;48.092;11.842;2023-03-29T15:08:07;33.03;28.79;52.57;;
45964;Laerm;31671;48.092;11.842;2023-03-29T15:10:36;33.23;28.63;51.99;;
45964;Laerm;31671;48.092;11.842;2023-03-29T15:13:03;34.62;29.03;53.32;;
45964;Laerm;31671;48.092;11.842;2023-03-29T15:15:30;33.82;29.03;50.12;;
45964;Laerm;31671;48.092;11.842;2023-03-29T15:17:57;37.25;29.19;59.35;;
45964;Laerm;31671;48.092;11.842;2023-03-29T15:20:26;32.95;29.13;50.04;;
45964;Laerm;31671;48.092;11.842;2023-03-29T15:22:57;38.26;29.05;63.49;;
45964;Laerm;31671;48.092;11.842;2023-03-29T15:25:31;36.56;29.16;58.93;;
45964;Laerm;31671;48.092;11.842;2023-03-29T15:27:57;36.71;29.24;59.71;;
45964;Laerm;31671;48.092;11.842;2023-03-29T15:30:38;46.92;29.29;68.53;;
45964;Laerm;31671;48.092;11.842;2023-03-29T15:33:59;31.19;29.27;47.92;;
45964;Laerm;31671;48.092;11.842;2023-03-29T15:35:53;32.02;29.10;50.06;;